Time;durP1;ratioP1;P1;durP2;ratioP2;P2;SDS_P1;SDS_P2;PMS_P1;PMS_P2;Temp;Humidity;BMP_temperature;BMP_pressure;BME280_temperature;BME280_humidity;BME280_pressure;Samples;Min_cycle;Max_cycle;Signal;HPM_P1;HPM_P2
2021/12/23 00:00:37;;;;;;;;;;;-1.20;99.90;;;;;;5071799;28;19946;-43
2021/12/23 00:03:04;;;;;;;;;;;-1.20;99.90;;;;;;5068167;28;19924;-43
2021/12/23 00:05:31;;;;;;;;;;;-1.10;99.90;;;;;;5068385;28;19954;-44
2021/12/23 00:07:57;;;;;;;;;;;-1.10;99.90;;;;;;5071882;28;20392;-44
2021/12/23 00:10:24;;;;;;;;;;;-1.10;99.90;;;;;;5070521;28;20030;-43
2021/12/23 00:12:51;;;;;;;;;;;-1.10;99.90;;;;;;5072314;28;19924;-43
2021/12/23 00:15:28;;;;;;;;;;;-1.00;99.90;;;;;;5069622;28;20023;-44
2021/12/23 00:17:59;;;;;;;;;;;-1.00;99.90;;;;;;5072005;28;20371;-43
2021/12/23 00:23:27;;;;;;;;;;;-1.00;99.90;;;;;;5072667;28;19929;-46
2021/12/23 00:25:54;;;;;;;;;;;-1.00;99.90;;;;;;5071194;28;19924;-43
2021/12/23 00:28:21;;;;;;;;;;;-1.00;99.90;;;;;;5076205;28;19990;-43
2021/12/23 00:30:49;;;;;;;;;;;-1.00;99.90;;;;;;5079509;28;20334;-43
2021/12/23 00:33:16;;;;;;;;;;;-0.90;99.90;;;;;;5074397;28;20432;-45
2021/12/23 00:35:43;;;;;;;;;;;-1.00;99.90;;;;;;5076479;28;19947;-43
2021/12/23 00:38:17;;;;;;;;;;;-1.00;99.90;;;;;;5073517;28;19975;-43
2021/12/23 00:40:44;;;;;;;;;;;-0.90;99.90;;;;;;5064246;28;19974;-43
2021/12/23 00:43:11;;;;;;;;;;;-0.90;99.90;;;;;;5072279;28;19931;-44
2021/12/23 00:45:37;;;;;;;;;;;-0.90;99.90;;;;;;5074179;28;19936;-44
2021/12/23 00:48:06;;;;;;;;;;;-0.90;99.90;;;;;;5075796;28;20011;-43
2021/12/23 00:50:33;;;;;;;;;;;-0.90;99.90;;;;;;5073711;28;20082;-43
2021/12/23 00:53:01;;;;;;;;;;;-0.80;99.90;;;;;;5074104;28;19975;-43
2021/12/23 00:55:28;;;;;;;;;;;-0.80;99.90;;;;;;5075733;28;19932;-43
2021/12/23 00:57:55;;;;;;;;;;;-0.80;99.90;;;;;;5074939;28;20009;-42
2021/12/23 01:00:21;;;;;;;;;;;-0.80;99.90;;;;;;5074400;28;19924;-43
2021/12/23 01:02:48;;;;;;;;;;;-0.70;99.90;;;;;;5074323;28;20392;-44
2021/12/23 01:05:18;;;;;;;;;;;-0.80;99.90;;;;;;5072292;28;19928;-43
2021/12/23 01:07:44;;;;;;;;;;;-0.70;99.90;;;;;;5074624;28;19924;-43
2021/12/23 01:10:11;;;;;;;;;;;-0.80;99.90;;;;;;5075005;28;19924;-45
2021/12/23 01:12:44;;;;;;;;;;;-0.70;99.90;;;;;;5073437;28;19978;-43
2021/12/23 01:15:15;;;;;;;;;;;-0.70;99.90;;;;;;5068117;28;19986;-44
2021/12/23 01:17:54;;;;;;;;;;;-0.70;99.90;;;;;;5075158;28;19925;-43
2021/12/23 01:20:26;;;;;;;;;;;-0.70;99.90;;;;;;5071082;28;20003;-44
2021/12/23 01:22:53;;;;;;;;;;;-0.70;99.90;;;;;;5063451;28;20337;-43
2021/12/23 01:25:20;;;;;;;;;;;-0.60;99.90;;;;;;5067311;28;19925;-44
2021/12/23 01:27:47;;;;;;;;;;;-0.70;99.90;;;;;;5073559;28;19924;-45
2021/12/23 01:30:14;;;;;;;;;;;-0.60;99.90;;;;;;5075429;28;19924;-43
2021/12/23 01:32:41;;;;;;;;;;;-0.60;99.90;;;;;;5070651;28;20381;-42
2021/12/23 01:35:08;;;;;;;;;;;-0.60;99.90;;;;;;5075127;28;19928;-43
2021/12/23 01:37:37;;;;;;;;;;;-0.60;99.90;;;;;;5073307;28;19925;-44
2021/12/23 01:40:04;;;;;;;;;;;-0.60;99.90;;;;;;5075169;28;20273;-42
2021/12/23 01:42:31;;;;;;;;;;;-0.60;99.90;;;;;;5070904;28;19979;-43
2021/12/23 01:44:58;;;;;;;;;;;-0.60;99.90;;;;;;5074248;28;19964;-43
2021/12/23 01:47:25;;;;;;;;;;;-0.60;99.90;;;;;;5075073;28;19925;-43
2021/12/23 01:49:52;;;;;;;;;;;-0.60;99.90;;;;;;5074747;28;19932;-43
2021/12/23 01:52:18;;;;;;;;;;;-0.60;99.90;;;;;;5073667;28;19931;-43
2021/12/23 01:54:46;;;;;;;;;;;-0.60;99.90;;;;;;5073489;28;20319;-42
2021/12/23 01:57:13;;;;;;;;;;;-0.60;99.90;;;;;;5075157;28;20295;-43
2021/12/23 01:59:40;;;;;;;;;;;-0.60;99.90;;;;;;5071150;28;20013;-42
2021/12/23 02:02:07;;;;;;;;;;;-0.60;99.90;;;;;;5070656;28;19925;-42
2021/12/23 02:04:34;;;;;;;;;;;-0.60;99.90;;;;;;5063985;28;20260;-44
2021/12/23 02:07:00;;;;;;;;;;;-0.60;99.90;;;;;;5074499;28;20396;-42
2021/12/23 02:09:27;;;;;;;;;;;-0.60;99.90;;;;;;5073257;28;19963;-44
2021/12/23 02:11:56;;;;;;;;;;;-0.50;99.90;;;;;;5071795;28;19924;-42
2021/12/23 02:14:23;;;;;;;;;;;-0.50;99.90;;;;;;5073327;28;19948;-42
2021/12/23 02:16:50;;;;;;;;;;;-0.50;99.90;;;;;;5070260;28;20015;-43
2021/12/23 02:19:17;;;;;;;;;;;-0.50;99.90;;;;;;5074244;28;20353;-44
2021/12/23 02:21:45;;;;;;;;;;;-0.50;99.90;;;;;;5072718;28;19994;-43
2021/12/23 02:24:12;;;;;;;;;;;-0.50;99.90;;;;;;5074109;28;19924;-43
2021/12/23 02:26:39;;;;;;;;;;;-0.50;99.90;;;;;;5072923;28;19976;-44
2021/12/23 02:29:06;;;;;;;;;;;-0.50;99.90;;;;;;5085078;28;20416;-42
2021/12/23 02:31:32;;;;;;;;;;;-0.50;99.90;;;;;;5073560;28;20274;-43
2021/12/23 02:33:59;;;;;;;;;;;-0.50;99.90;;;;;;5070864;28;19928;-43
2021/12/23 02:36:26;;;;;;;;;;;-0.50;99.90;;;;;;5073826;28;19924;-44
2021/12/23 02:38:54;;;;;;;;;;;-0.50;99.90;;;;;;5071039;28;19925;-43
2021/12/23 02:41:21;;;;;;;;;;;-0.40;99.90;;;;;;5069386;28;19982;-45
2021/12/23 02:43:48;;;;;;;;;;;-0.40;99.90;;;;;;5069779;28;19924;-44
2021/12/23 02:46:18;;;;;;;;;;;-0.40;99.90;;;;;;5072745;28;19925;-43
2021/12/23 02:48:44;;;;;;;;;;;-0.40;99.90;;;;;;5068202;28;20014;-44
2021/12/23 02:51:11;;;;;;;;;;;-0.40;99.90;;;;;;5072204;28;19928;-44
2021/12/23 02:53:38;;;;;;;;;;;-0.40;99.90;;;;;;5073318;28;20364;-45
2021/12/23 02:56:07;;;;;;;;;;;-0.40;99.90;;;;;;5071436;28;19925;-44
2021/12/23 02:58:34;;;;;;;;;;;-0.30;99.90;;;;;;5073613;28;20360;-43
2021/12/23 03:01:01;;;;;;;;;;;-0.30;99.90;;;;;;5073447;28;20291;-43
2021/12/23 03:03:27;;;;;;;;;;;-0.30;99.90;;;;;;5069467;28;19925;-42
2021/12/23 03:05:55;;;;;;;;;;;-0.30;99.90;;;;;;5071462;28;20368;-46
2021/12/23 03:08:27;;;;;;;;;;;-0.30;99.90;;;;;;5071925;28;19924;-43
2021/12/23 03:10:54;;;;;;;;;;;-0.30;99.90;;;;;;5073170;28;19966;-42
2021/12/23 03:13:22;;;;;;;;;;;-0.30;99.90;;;;;;5105759;28;19924;-43
2021/12/23 03:15:49;;;;;;;;;;;-0.30;99.90;;;;;;5073383;28;20015;-43
2021/12/23 03:18:15;;;;;;;;;;;-0.30;99.90;;;;;;5071281;28;20450;-43
2021/12/23 03:20:42;;;;;;;;;;;-0.30;99.90;;;;;;5073240;28;20341;-45
2021/12/23 03:23:09;;;;;;;;;;;-0.30;99.90;;;;;;5073071;28;20311;-43
2021/12/23 03:25:36;;;;;;;;;;;-0.30;99.90;;;;;;5073277;28;19924;-44
2021/12/23 03:28:03;;;;;;;;;;;-0.30;99.90;;;;;;5072030;28;19930;-44
2021/12/23 03:30:34;;;;;;;;;;;-0.20;99.90;;;;;;5072019;28;19928;-43
2021/12/23 03:33:00;;;;;;;;;;;-0.30;99.90;;;;;;5070793;28;19978;-45
2021/12/23 03:35:27;;;;;;;;;;;-0.20;99.90;;;;;;5072622;28;20018;-43
2021/12/23 03:37:54;;;;;;;;;;;-0.20;99.90;;;;;;5070756;28;19931;-42
2021/12/23 03:40:21;;;;;;;;;;;-0.20;99.90;;;;;;5072133;28;19935;-44
2021/12/23 03:42:48;;;;;;;;;;;-0.20;99.90;;;;;;5071990;28;19971;-43
2021/12/23 03:45:14;;;;;;;;;;;-0.20;99.90;;;;;;5072214;28;19924;-43
2021/12/23 03:47:42;;;;;;;;;;;-0.20;99.90;;;;;;5068287;28;20015;-43
2021/12/23 03:50:09;;;;;;;;;;;-0.20;99.90;;;;;;5069728;28;19931;-43
2021/12/23 03:52:36;;;;;;;;;;;-0.20;99.90;;;;;;5071310;28;20319;-44
2021/12/23 03:55:03;;;;;;;;;;;-0.20;99.90;;;;;;5071559;28;19931;-44
2021/12/23 03:57:30;;;;;;;;;;;-0.20;99.90;;;;;;5063341;28;19928;-43
2021/12/23 03:59:57;;;;;;;;;;;-0.10;99.90;;;;;;5072786;28;20306;-43
2021/12/23 04:02:24;;;;;;;;;;;-0.20;99.90;;;;;;5071539;28;19931;-43
2021/12/23 04:04:52;;;;;;;;;;;-0.20;99.90;;;;;;5070441;28;19925;-43
2021/12/23 04:07:18;;;;;;;;;;;-0.20;99.90;;;;;;5071527;28;19972;-43
2021/12/23 04:09:45;;;;;;;;;;;-0.20;99.90;;;;;;5070543;28;19975;-43
2021/12/23 04:12:12;;;;;;;;;;;-0.20;99.90;;;;;;5068381;28;19925;-44
2021/12/23 04:14:39;;;;;;;;;;;-0.20;99.90;;;;;;5072504;28;20299;-43
2021/12/23 04:17:06;;;;;;;;;;;-0.20;99.90;;;;;;5068314;28;19925;-42
2021/12/23 04:19:33;;;;;;;;;;;-0.20;99.90;;;;;;5071088;28;20012;-43
2021/12/23 04:22:04;;;;;;;;;;;-0.10;99.90;;;;;;5071280;28;19935;-45
2021/12/23 04:24:31;;;;;;;;;;;-0.10;99.90;;;;;;5072326;28;19928;-43
2021/12/23 04:26:58;;;;;;;;;;;-0.20;99.90;;;;;;5068066;28;19956;-43
2021/12/23 04:29:24;;;;;;;;;;;-0.10;99.90;;;;;;5070263;28;20023;-43
2021/12/23 04:31:51;;;;;;;;;;;-0.10;99.90;;;;;;5071050;28;19924;-43
2021/12/23 04:34:18;;;;;;;;;;;-0.10;99.90;;;;;;5071917;28;19986;-44
2021/12/23 04:36:45;;;;;;;;;;;-0.10;99.90;;;;;;5070313;28;20017;-43
2021/12/23 04:39:13;;;;;;;;;;;-0.10;99.90;;;;;;5068467;28;19924;-44
2021/12/23 04:41:39;;;;;;;;;;;0.00;99.90;;;;;;5071647;28;19928;-44
2021/12/23 04:44:06;;;;;;;;;;;-0.10;99.90;;;;;;5071414;28;19924;-44
2021/12/23 04:46:33;;;;;;;;;;;-0.10;99.90;;;;;;5060933;28;20384;-43
2021/12/23 04:49:00;;;;;;;;;;;-0.10;99.90;;;;;;5071922;28;20368;-43
2021/12/23 04:51:27;;;;;;;;;;;-0.20;99.90;;;;;;5069906;28;20325;-43
2021/12/23 04:53:54;;;;;;;;;;;-0.10;99.90;;;;;;5071360;28;19924;-45
2021/12/23 04:56:22;;;;;;;;;;;-0.10;99.90;;;;;;5074357;28;19924;-43
2021/12/23 04:58:48;;;;;;;;;;;-0.10;99.90;;;;;;5071510;28;19925;-43
2021/12/23 05:01:20;;;;;;;;;;;-0.10;99.90;;;;;;5067595;28;20322;-43
2021/12/23 05:03:48;;;;;;;;;;;-0.10;99.90;;;;;;5070671;28;20423;-44
2021/12/23 05:06:15;;;;;;;;;;;-0.10;99.90;;;;;;5066103;28;20004;-43
2021/12/23 05:08:42;;;;;;;;;;;0.00;99.90;;;;;;5074320;28;20004;-45
2021/12/23 05:11:08;;;;;;;;;;;-0.10;99.90;;;;;;5073622;28;19925;-45
2021/12/23 05:13:36;;;;;;;;;;;0.00;99.90;;;;;;5073856;28;19975;-43
2021/12/23 05:16:03;;;;;;;;;;;0.00;99.90;;;;;;5074266;28;19931;-43
2021/12/23 05:18:30;;;;;;;;;;;0.00;99.90;;;;;;5074689;28;19940;-44
2021/12/23 05:20:57;;;;;;;;;;;0.00;99.90;;;;;;5074264;28;19924;-43
2021/12/23 05:23:24;;;;;;;;;;;0.00;99.90;;;;;;5073535;28;19974;-42
2021/12/23 05:25:50;;;;;;;;;;;0.00;99.90;;;;;;5074755;28;19935;-43
2021/12/23 05:28:17;;;;;;;;;;;0.00;99.90;;;;;;5074278;28;19955;-43
2021/12/23 05:30:45;;;;;;;;;;;0.00;99.90;;;;;;5075219;28;19924;-43
2021/12/23 05:33:12;;;;;;;;;;;0.00;99.90;;;;;;5073815;28;20021;-43
2021/12/23 05:35:39;;;;;;;;;;;0.00;99.90;;;;;;5073375;28;19930;-43
2021/12/23 05:38:05;;;;;;;;;;;-0.10;99.90;;;;;;5073482;28;19932;-45
2021/12/23 05:40:33;;;;;;;;;;;0.00;99.90;;;;;;5069674;28;20290;-43
2021/12/23 05:43:00;;;;;;;;;;;0.00;99.90;;;;;;5073793;28;19935;-43
2021/12/23 05:45:27;;;;;;;;;;;-0.10;99.90;;;;;;5074634;28;19924;-44
2021/12/23 05:47:55;;;;;;;;;;;0.00;99.90;;;;;;5072132;28;19924;-43
2021/12/23 05:50:23;;;;;;;;;;;0.00;99.90;;;;;;5070753;28;19974;-44
2021/12/23 05:52:52;;;;;;;;;;;-0.10;99.90;;;;;;5071608;28;20372;-45
2021/12/23 05:55:19;;;;;;;;;;;0.00;99.90;;;;;;5070469;28;19975;-45
2021/12/23 05:57:46;;;;;;;;;;;-0.10;99.90;;;;;;5072097;28;19931;-43
2021/12/23 06:00:14;;;;;;;;;;;0.00;99.90;;;;;;5073454;28;20011;-44
2021/12/23 06:02:40;;;;;;;;;;;0.00;99.90;;;;;;5073780;28;19924;-46
2021/12/23 06:05:09;;;;;;;;;;;0.00;99.90;;;;;;5105474;28;19939;-45
2021/12/23 06:07:36;;;;;;;;;;;0.00;99.90;;;;;;5072236;28;19963;-43
2021/12/23 06:10:03;;;;;;;;;;;0.00;99.90;;;;;;5073196;28;19932;-44
2021/12/23 06:12:30;;;;;;;;;;;0.00;99.90;;;;;;5074387;28;20010;-43
2021/12/23 06:14:57;;;;;;;;;;;0.00;99.90;;;;;;5072739;28;20024;-43
2021/12/23 06:17:23;;;;;;;;;;;0.00;99.90;;;;;;5073683;28;19931;-42
2021/12/23 06:19:50;;;;;;;;;;;0.00;99.90;;;;;;5072278;28;19939;-44
2021/12/23 06:22:19;;;;;;;;;;;0.00;99.90;;;;;;5074489;28;19924;-43
2021/12/23 06:24:47;;;;;;;;;;;0.00;99.90;;;;;;5069962;28;19929;-44
2021/12/23 06:27:14;;;;;;;;;;;0.10;99.90;;;;;;5072556;28;19930;-42
2021/12/23 06:29:41;;;;;;;;;;;0.10;99.90;;;;;;5074097;28;19935;-43
2021/12/23 06:32:08;;;;;;;;;;;0.10;99.90;;;;;;5072056;28;19924;-43
2021/12/23 06:34:35;;;;;;;;;;;0.10;99.90;;;;;;5072947;28;19974;-44
2021/12/23 06:37:03;;;;;;;;;;;0.10;99.90;;;;;;5076940;28;20023;-44
2021/12/23 06:39:32;;;;;;;;;;;0.10;99.90;;;;;;5071774;28;20011;-44
2021/12/23 06:41:58;;;;;;;;;;;0.20;99.90;;;;;;5070327;28;19932;-46
2021/12/23 06:44:25;;;;;;;;;;;0.10;99.90;;;;;;5071876;28;19968;-43
2021/12/23 06:46:52;;;;;;;;;;;0.10;99.90;;;;;;5069292;28;19925;-44
2021/12/23 06:49:19;;;;;;;;;;;0.10;99.90;;;;;;5072605;28;19986;-44
2021/12/23 06:51:46;;;;;;;;;;;0.10;99.90;;;;;;5073411;28;19925;-43
2021/12/23 06:54:14;;;;;;;;;;;0.10;99.90;;;;;;5073272;28;19932;-43
2021/12/23 06:56:42;;;;;;;;;;;0.10;99.90;;;;;;5073215;28;20004;-44
2021/12/23 06:59:09;;;;;;;;;;;0.20;99.90;;;;;;5070316;28;19972;-44
2021/12/23 07:01:36;;;;;;;;;;;0.20;99.90;;;;;;5073593;28;20433;-45
2021/12/23 07:04:12;;;;;;;;;;;0.10;99.90;;;;;;5072185;28;20001;-44
2021/12/23 07:06:46;;;;;;;;;;;0.20;99.90;;;;;;5063296;28;20019;-43
2021/12/23 07:09:13;;;;;;;;;;;0.20;99.90;;;;;;5066176;28;19929;-44
2021/12/23 07:11:41;;;;;;;;;;;0.20;99.90;;;;;;5073419;28;19989;-43
2021/12/23 07:14:08;;;;;;;;;;;0.20;99.90;;;;;;5080329;28;19924;-44
2021/12/23 07:16:38;;;;;;;;;;;0.20;99.90;;;;;;5073947;28;21442;-46
2021/12/23 07:19:05;;;;;;;;;;;0.20;99.90;;;;;;5079242;28;20007;-43
2021/12/23 07:21:32;;;;;;;;;;;0.20;99.90;;;;;;5084821;28;20312;-44
2021/12/23 07:23:58;;;;;;;;;;;0.20;99.90;;;;;;5077398;28;19935;-44
2021/12/23 07:26:25;;;;;;;;;;;0.20;99.90;;;;;;5070723;28;20019;-45
2021/12/23 07:28:53;;;;;;;;;;;0.20;99.90;;;;;;5088579;28;19928;-43
2021/12/23 07:31:20;;;;;;;;;;;0.20;99.90;;;;;;5082096;28;20015;-43
2021/12/23 07:33:47;;;;;;;;;;;0.20;99.90;;;;;;5072302;28;20433;-44
2021/12/23 07:36:14;;;;;;;;;;;0.20;99.90;;;;;;5061815;28;20395;-45
2021/12/23 07:38:41;;;;;;;;;;;0.20;99.90;;;;;;5073641;28;19965;-47
2021/12/23 07:41:08;;;;;;;;;;;0.30;99.90;;;;;;5068164;28;19925;-46
2021/12/23 07:46:19;;;;;;;;;;;0.20;99.90;;;;;;5051438;28;19932;-44
2021/12/23 07:48:46;;;;;;;;;;;0.30;99.90;;;;;;5073291;28;20036;-43
2021/12/23 07:51:13;;;;;;;;;;;0.30;99.90;;;;;;5075545;28;20459;-44
2021/12/23 07:53:40;;;;;;;;;;;0.30;99.90;;;;;;5064724;28;19924;-44
2021/12/23 07:56:07;;;;;;;;;;;0.30;99.90;;;;;;5068303;28;19967;-44
2021/12/23 07:58:33;;;;;;;;;;;0.30;99.90;;;;;;5071878;28;19932;-44
2021/12/23 08:01:00;;;;;;;;;;;0.30;99.90;;;;;;5066933;28;19929;-44
2021/12/23 08:03:28;;;;;;;;;;;0.30;99.90;;;;;;5067869;28;19928;-44
2021/12/23 08:05:55;;;;;;;;;;;0.30;99.90;;;;;;5072173;28;19931;-45
2021/12/23 08:08:22;;;;;;;;;;;0.30;99.90;;;;;;5068703;28;19970;-44
2021/12/23 08:10:50;;;;;;;;;;;0.20;99.90;;;;;;5072303;28;20384;-44
2021/12/23 08:13:17;;;;;;;;;;;0.30;99.90;;;;;;5067296;28;19925;-47
2021/12/23 08:15:43;;;;;;;;;;;0.20;99.90;;;;;;5064063;28;20381;-45
2021/12/23 08:18:10;;;;;;;;;;;0.20;99.90;;;;;;5068325;28;20013;-44
2021/12/23 08:20:38;;;;;;;;;;;0.30;99.90;;;;;;5071215;28;19931;-44
2021/12/23 08:23:05;;;;;;;;;;;0.20;99.90;;;;;;5070512;28;19924;-44
2021/12/23 08:25:32;;;;;;;;;;;0.20;99.90;;;;;;5070584;28;19928;-44
2021/12/23 08:27:58;;;;;;;;;;;0.20;99.90;;;;;;5071803;28;19974;-43
2021/12/23 08:30:25;;;;;;;;;;;0.20;99.90;;;;;;5071499;28;20383;-44
2021/12/23 08:32:52;;;;;;;;;;;0.30;99.90;;;;;;5071926;28;20285;-43
2021/12/23 08:35:19;;;;;;;;;;;0.20;99.90;;;;;;5069774;28;19955;-46
2021/12/23 08:37:48;;;;;;;;;;;0.20;99.90;;;;;;5068523;28;20027;-44
2021/12/23 08:40:15;;;;;;;;;;;0.20;99.90;;;;;;5070112;28;19972;-43
2021/12/23 08:42:41;;;;;;;;;;;0.20;99.90;;;;;;5072066;28;19975;-44
2021/12/23 08:45:09;;;;;;;;;;;0.20;99.90;;;;;;5074432;28;19931;-43
2021/12/23 08:47:35;;;;;;;;;;;0.30;99.90;;;;;;5074774;28;19953;-44
2021/12/23 08:50:02;;;;;;;;;;;0.30;99.90;;;;;;5071533;28;19978;-44
2021/12/23 08:52:29;;;;;;;;;;;0.30;99.90;;;;;;5073755;28;19928;-44
2021/12/23 08:54:57;;;;;;;;;;;0.30;99.90;;;;;;5075248;28;19931;-44
2021/12/23 08:57:25;;;;;;;;;;;0.30;99.90;;;;;;5075631;28;19925;-44
2021/12/23 08:59:52;;;;;;;;;;;0.40;99.90;;;;;;5091434;28;19950;-43
2021/12/23 09:02:19;;;;;;;;;;;0.40;99.90;;;;;;5075667;28;19931;-44
2021/12/23 09:04:46;;;;;;;;;;;0.30;99.90;;;;;;5071092;28;19925;-43
2021/12/23 09:07:12;;;;;;;;;;;0.40;99.90;;;;;;5069648;28;19925;-44
2021/12/23 09:09:39;;;;;;;;;;;0.40;99.90;;;;;;5071002;28;19925;-43
2021/12/23 09:12:09;;;;;;;;;;;0.40;99.90;;;;;;5074461;28;20027;-46
2021/12/23 09:14:35;;;;;;;;;;;0.40;99.90;;;;;;5073538;28;19970;-44
2021/12/23 09:17:02;;;;;;;;;;;0.40;99.90;;;;;;5074874;28;19932;-44
2021/12/23 09:19:29;;;;;;;;;;;0.40;99.90;;;;;;5070306;28;19970;-43
2021/12/23 09:21:56;;;;;;;;;;;0.40;99.90;;;;;;5073277;28;19925;-44
2021/12/23 09:24:23;;;;;;;;;;;0.50;99.90;;;;;;5073491;28;19932;-42
2021/12/23 09:26:55;;;;;;;;;;;0.40;99.90;;;;;;5073800;28;19971;-44
2021/12/23 09:34:48;;;;;;;;;;;0.40;99.90;;;;;;5068203;28;19936;-43
2021/12/23 09:37:15;;;;;;;;;;;0.40;99.90;;;;;;5074099;28;20011;-46
2021/12/23 09:39:42;;;;;;;;;;;0.40;99.90;;;;;;5072674;28;19934;-45
2021/12/23 09:42:08;;;;;;;;;;;0.50;99.90;;;;;;5069099;28;19960;-43
2021/12/23 09:44:37;;;;;;;;;;;0.50;99.90;;;;;;5066029;28;20258;-44
2021/12/23 09:47:04;;;;;;;;;;;0.50;99.90;;;;;;5070909;28;19932;-43
2021/12/23 09:49:31;;;;;;;;;;;0.50;99.90;;;;;;5072670;28;20430;-44
2021/12/23 09:51:57;;;;;;;;;;;0.50;99.90;;;;;;5073337;28;19928;-43
2021/12/23 09:54:24;;;;;;;;;;;0.50;99.90;;;;;;5069718;28;19924;-45
2021/12/23 09:56:51;;;;;;;;;;;0.50;99.90;;;;;;5071516;28;20015;-45
2021/12/23 09:59:19;;;;;;;;;;;0.50;99.90;;;;;;5064866;28;19964;-44
2021/12/23 10:01:48;;;;;;;;;;;0.50;99.90;;;;;;5064817;28;20282;-44
2021/12/23 10:04:14;;;;;;;;;;;0.50;99.90;;;;;;5061640;28;20359;-45
2021/12/23 10:06:41;;;;;;;;;;;0.60;99.90;;;;;;5061724;28;20013;-49
2021/12/23 10:09:08;;;;;;;;;;;0.60;99.90;;;;;;5066295;28;20010;-45
2021/12/23 10:11:53;;;;;;;;;;;0.60;99.90;;;;;;5066950;28;19960;-44
2021/12/23 10:31:09;;;;;;;;;;;0.60;99.90;;;;;;5076855;28;20393;-46
2021/12/23 10:37:03;;;;;;;;;;;0.60;99.90;;;;;;5069761;28;19925;-45
2021/12/23 10:39:21;;;;;;;;;;;0.70;99.90;;;;;;5062120;28;20015;-46
2021/12/23 10:41:48;;;;;;;;;;;0.70;99.90;;;;;;5065694;28;19928;-45
2021/12/23 10:44:15;;;;;;;;;;;0.70;99.90;;;;;;5068779;28;19986;-47
2021/12/23 10:46:41;;;;;;;;;;;0.70;99.90;;;;;;5062670;28;19970;-45
2021/12/23 10:49:24;;;;;;;;;;;0.70;99.90;;;;;;5069609;28;20416;-45
2021/12/23 10:51:58;;;;;;;;;;;0.70;99.90;;;;;;5059364;28;19925;-46
2021/12/23 10:58:00;;;;;;;;;;;0.70;99.90;;;;;;5068518;28;19948;-45
2021/12/23 11:00:12;;;;;;;;;;;0.70;99.90;;;;;;5070107;28;20404;-46
2021/12/23 11:02:41;;;;;;;;;;;0.80;99.90;;;;;;5072966;28;19964;-45
2021/12/23 11:05:13;;;;;;;;;;;0.80;99.90;;;;;;5063532;28;19955;-46
2021/12/23 11:07:44;;;;;;;;;;;0.80;99.90;;;;;;5068109;28;19963;-45
2021/12/23 11:10:19;;;;;;;;;;;0.80;99.90;;;;;;5083442;28;20380;-46
2021/12/23 11:37:53;;;;;;;;;;;0.80;99.90;;;;;;5068022;28;19962;-45
2021/12/23 11:40:38;;;;;;;;;;;0.80;99.90;;;;;;5065034;28;19983;-44
2021/12/23 11:43:27;;;;;;;;;;;0.80;99.90;;;;;;5062406;28;19925;-44
2021/12/23 11:45:54;;;;;;;;;;;0.80;99.90;;;;;;5069569;28;19984;-44
2021/12/23 11:48:21;;;;;;;;;;;0.90;99.90;;;;;;5071247;28;19924;-43
2021/12/23 11:50:55;;;;;;;;;;;0.90;99.90;;;;;;5070666;28;19970;-44
2021/12/23 11:53:24;;;;;;;;;;;0.90;99.90;;;;;;5070834;28;19939;-44
2021/12/23 11:55:51;;;;;;;;;;;0.90;99.90;;;;;;5061580;28;20359;-43
2021/12/23 11:58:21;;;;;;;;;;;0.90;99.90;;;;;;5069525;28;20316;-44
2021/12/23 12:00:55;;;;;;;;;;;0.90;99.90;;;;;;5066418;28;19956;-45
2021/12/23 12:03:23;;;;;;;;;;;0.90;99.90;;;;;;5068689;28;19928;-45
2021/12/23 12:05:50;;;;;;;;;;;1.00;99.90;;;;;;5069565;28;19925;-43
2021/12/23 12:08:16;;;;;;;;;;;1.00;99.90;;;;;;5069055;28;20620;-44
2021/12/23 12:10:45;;;;;;;;;;;1.00;99.90;;;;;;5065856;28;19924;-44
2021/12/23 12:13:12;;;;;;;;;;;1.00;99.90;;;;;;5067575;28;19964;-45
2021/12/23 12:15:47;;;;;;;;;;;1.00;99.90;;;;;;5072009;28;19924;-44
2021/12/23 12:18:14;;;;;;;;;;;1.00;99.90;;;;;;5078483;28;19928;-43
2021/12/23 12:20:46;;;;;;;;;;;1.00;99.90;;;;;;5071339;28;19964;-45
2021/12/23 12:23:14;;;;;;;;;;;1.10;99.90;;;;;;5073030;28;19974;-44
2021/12/23 12:25:52;;;;;;;;;;;1.00;99.90;;;;;;5072037;28;19925;-44
2021/12/23 12:28:22;;;;;;;;;;;1.10;99.90;;;;;;5071763;28;19972;-44
2021/12/23 12:30:49;;;;;;;;;;;1.10;99.90;;;;;;5074602;28;20381;-44
2021/12/23 12:33:33;;;;;;;;;;;1.10;99.90;;;;;;5070549;28;19925;-45
2021/12/23 12:36:04;;;;;;;;;;;1.10;99.90;;;;;;5076573;28;20015;-45
2021/12/23 12:38:32;;;;;;;;;;;1.10;99.90;;;;;;5077083;28;19933;-44
2021/12/23 12:41:01;;;;;;;;;;;1.10;99.90;;;;;;5066464;28;19932;-44
2021/12/23 12:43:33;;;;;;;;;;;1.10;99.90;;;;;;5068745;28;19981;-46
2021/12/23 12:46:00;;;;;;;;;;;1.10;99.90;;;;;;5071858;28;20019;-45
2021/12/23 12:48:42;;;;;;;;;;;1.00;99.90;;;;;;5068260;28;19957;-44
2021/12/23 12:51:18;;;;;;;;;;;1.10;99.90;;;;;;5070404;28;19931;-44
2021/12/23 12:53:51;;;;;;;;;;;1.10;99.90;;;;;;5070579;28;19982;-45
2021/12/23 12:56:22;;;;;;;;;;;1.10;99.90;;;;;;5071090;28;19928;-45
2021/12/23 12:58:51;;;;;;;;;;;1.10;99.90;;;;;;5078468;28;20681;-45
2021/12/23 13:01:29;;;;;;;;;;;1.20;99.90;;;;;;5071183;28;19924;-45
2021/12/23 13:03:56;;;;;;;;;;;1.20;99.90;;;;;;5075281;28;20412;-44
2021/12/23 13:06:23;;;;;;;;;;;1.20;99.90;;;;;;5076216;28;20372;-45
2021/12/23 13:08:49;;;;;;;;;;;1.20;99.90;;;;;;5077695;28;19985;-44
2021/12/23 13:11:17;;;;;;;;;;;1.20;99.90;;;;;;5068381;28;19931;-45
2021/12/23 13:13:49;;;;;;;;;;;1.20;99.90;;;;;;5077965;28;19928;-45
2021/12/23 13:16:17;;;;;;;;;;;1.20;99.90;;;;;;5074906;28;19928;-46
2021/12/23 13:18:44;;;;;;;;;;;1.20;99.90;;;;;;5069315;28;19932;-45
2021/12/23 13:21:11;;;;;;;;;;;1.20;99.90;;;;;;5073321;28;19924;-45
2021/12/23 13:23:40;;;;;;;;;;;1.20;99.90;;;;;;5078498;28;19928;-44
2021/12/23 13:26:07;;;;;;;;;;;1.30;99.90;;;;;;5076063;28;20304;-44
2021/12/23 13:28:36;;;;;;;;;;;1.20;99.90;;;;;;5073950;28;19994;-45
2021/12/23 13:31:05;;;;;;;;;;;1.20;99.90;;;;;;5074010;28;19925;-45
2021/12/23 13:33:40;;;;;;;;;;;1.20;99.90;;;;;;5066408;28;19924;-45
2021/12/23 13:36:12;;;;;;;;;;;1.20;99.90;;;;;;5073586;28;20449;-45
2021/12/23 13:38:41;;;;;;;;;;;1.20;99.90;;;;;;5069939;28;19931;-44
2021/12/23 13:41:15;;;;;;;;;;;1.30;99.90;;;;;;5079479;28;19972;-46
2021/12/23 13:43:42;;;;;;;;;;;1.20;99.90;;;;;;5115151;27;20414;-45
2021/12/23 13:46:10;;;;;;;;;;;1.20;99.90;;;;;;5067918;28;19925;-45
2021/12/23 13:48:52;;;;;;;;;;;1.30;99.90;;;;;;5072776;28;19931;-46
2021/12/23 13:51:19;;;;;;;;;;;1.20;99.90;;;;;;5069431;28;19933;-45
2021/12/23 13:53:46;;;;;;;;;;;1.20;99.90;;;;;;5076435;28;19925;-45
2021/12/23 13:56:13;;;;;;;;;;;1.30;99.90;;;;;;5072238;28;19976;-45
2021/12/23 13:58:40;;;;;;;;;;;1.30;99.90;;;;;;5073982;28;19970;-45
2021/12/23 14:01:07;;;;;;;;;;;1.30;99.90;;;;;;5072415;28;20273;-45
2021/12/23 14:03:35;;;;;;;;;;;1.30;99.90;;;;;;5104212;28;20024;-49
2021/12/23 14:06:01;;;;;;;;;;;1.30;99.90;;;;;;5070536;28;19930;-44
2021/12/23 14:08:30;;;;;;;;;;;1.30;99.90;;;;;;5073782;28;19943;-45
2021/12/23 14:10:57;;;;;;;;;;;1.30;99.90;;;;;;5072760;28;19929;-46
2021/12/23 14:13:24;;;;;;;;;;;1.40;99.90;;;;;;5070792;28;20343;-45
2021/12/23 14:15:51;;;;;;;;;;;1.30;99.90;;;;;;5074607;28;19925;-46
2021/12/23 14:18:25;;;;;;;;;;;1.30;99.90;;;;;;5071790;28;19925;-45
2021/12/23 14:23:40;;;;;;;;;;;1.30;99.90;;;;;;5068251;28;19932;-46
2021/12/23 14:26:07;;;;;;;;;;;1.40;99.90;;;;;;5072293;28;20026;-46
2021/12/23 14:28:35;;;;;;;;;;;1.40;99.90;;;;;;5108061;27;19925;-44
2021/12/23 14:31:03;;;;;;;;;;;1.40;99.90;;;;;;5078307;28;19924;-46
2021/12/23 14:33:30;;;;;;;;;;;1.40;99.90;;;;;;5080981;28;19930;-45
2021/12/23 14:36:02;;;;;;;;;;;1.30;99.90;;;;;;5078546;28;19928;-45
2021/12/23 14:38:30;;;;;;;;;;;1.40;99.90;;;;;;5078058;28;20392;-45
2021/12/23 14:41:01;;;;;;;;;;;1.40;99.90;;;;;;5080205;28;20351;-45
2021/12/23 14:43:28;;;;;;;;;;;1.40;99.90;;;;;;5083706;28;19971;-45
2021/12/23 14:45:57;;;;;;;;;;;1.40;99.90;;;;;;5071223;28;20016;-46
2021/12/23 14:48:25;;;;;;;;;;;1.40;99.90;;;;;;5079253;28;19928;-45
2021/12/23 14:51:01;;;;;;;;;;;1.40;99.90;;;;;;5111517;27;19974;-46
2021/12/23 14:53:29;;;;;;;;;;;1.40;99.90;;;;;;5075722;28;19924;-46
2021/12/23 14:55:57;;;;;;;;;;;1.40;99.90;;;;;;5073054;28;20003;-45
2021/12/23 14:58:23;;;;;;;;;;;1.40;99.90;;;;;;5071899;28;19925;-44
2021/12/23 15:00:50;;;;;;;;;;;1.50;99.90;;;;;;5073172;28;19924;-45
2021/12/23 15:03:19;;;;;;;;;;;1.60;99.90;;;;;;5071922;28;20773;-44
2021/12/23 15:05:47;;;;;;;;;;;1.40;99.90;;;;;;5076256;28;19931;-44
2021/12/23 15:08:17;;;;;;;;;;;1.40;99.90;;;;;;5061957;28;19960;-45
2021/12/23 15:10:46;;;;;;;;;;;1.40;99.90;;;;;;5079489;28;19924;-45
2021/12/23 15:13:13;;;;;;;;;;;1.50;99.90;;;;;;5072925;28;19924;-45
2021/12/23 15:15:40;;;;;;;;;;;1.40;99.90;;;;;;5075736;28;20346;-45
2021/12/23 15:18:14;;;;;;;;;;;1.50;99.90;;;;;;5070300;28;19978;-45
2021/12/23 15:20:46;;;;;;;;;;;1.40;99.90;;;;;;5073411;28;19924;-46
2021/12/23 15:23:13;;;;;;;;;;;1.40;99.90;;;;;;5074359;28;19924;-45
2021/12/23 15:25:41;;;;;;;;;;;1.40;99.90;;;;;;5070646;28;19956;-45
2021/12/23 15:28:11;;;;;;;;;;;1.40;99.90;;;;;;5075672;28;20406;-46
2021/12/23 15:30:39;;;;;;;;;;;1.50;99.90;;;;;;5067549;28;19924;-45
2021/12/23 15:33:06;;;;;;;;;;;1.40;99.90;;;;;;5112605;27;19933;-47